createdAt,value
2022-11-10T00:00:01.380Z,101218.66
2022-11-10T00:02:48.137Z,101225.28
2022-11-10T00:05:38.169Z,101217.81
2022-11-10T00:08:24.436Z,101217.28
2022-11-10T00:11:10.798Z,101226.69
2022-11-10T00:14:15.849Z,101223.84
2022-11-10T00:17:09.110Z,101226.03
2022-11-10T00:19:55.902Z,101228.25
2022-11-10T00:22:42.222Z,101225.50
2022-11-10T00:25:29.042Z,101227.16
2022-11-10T00:28:15.521Z,101226.06
2022-11-10T00:31:06.212Z,101228.00
2022-11-10T00:33:52.693Z,101231.00
2022-11-10T00:36:39.615Z,101234.28
2022-11-10T00:39:26.296Z,101230.47
2022-11-10T00:42:12.573Z,101239.78
2022-11-10T00:44:58.901Z,101229.63
2022-11-10T00:47:46.847Z,101229.06
2022-11-10T00:50:33.446Z,101229.91
2022-11-10T00:53:20.281Z,101235.97
2022-11-10T00:56:07.102Z,101230.47
2022-11-10T00:58:53.330Z,101225.00
2022-11-10T01:01:39.774Z,101228.81
2022-11-10T01:04:26.006Z,101228.81
2022-11-10T01:07:12.202Z,101229.88
2022-11-10T01:09:58.895Z,101231.25
2022-11-10T01:12:45.495Z,101229.63
2022-11-10T01:15:32.111Z,101223.84
2022-11-10T01:18:18.893Z,101225.75
2022-11-10T01:21:06.656Z,101222.75
2022-11-10T01:23:53.581Z,101230.94
2022-11-10T01:26:40.352Z,101232.88
2022-11-10T01:29:26.854Z,101226.00
2022-11-10T01:32:13.226Z,101231.44
2022-11-10T01:34:59.455Z,101232.88
2022-11-10T01:37:46.175Z,101237.31
2022-11-10T01:40:32.436Z,101229.34
2022-11-10T01:43:19.249Z,101226.59
2022-11-10T01:46:08.487Z,101226.03
2022-11-10T01:49:02.438Z,101224.94
2022-11-10T01:51:51.261Z,101222.97
2022-11-10T01:54:43.443Z,101224.13
2022-11-10T01:57:29.897Z,101224.38
2022-11-10T02:00:18.136Z,101223.28
2022-11-10T02:03:13.956Z,101219.44
2022-11-10T02:06:00.751Z,101218.91
2022-11-10T02:08:47.967Z,101224.38
2022-11-10T02:11:36.197Z,101223.28
2022-11-10T02:14:22.719Z,101213.88
2022-11-10T02:17:09.753Z,101213.84
2022-11-10T02:20:04.919Z,101213.41
2022-11-10T02:22:51.415Z,101212.34
2022-11-10T02:25:37.805Z,101217.22
2022-11-10T02:28:25.848Z,101209.50
2022-11-10T02:31:13.066Z,101211.19
2022-11-10T02:33:59.596Z,101216.13
2022-11-10T02:36:46.457Z,101209.00
2022-11-10T02:39:33.232Z,101219.44
2022-11-10T02:42:19.860Z,101221.06
2022-11-10T02:45:06.649Z,101225.44
2022-11-10T02:47:53.101Z,101233.13
2022-11-10T02:50:40.751Z,101232.34
2022-11-10T02:53:27.377Z,101235.63
2022-11-10T02:56:14.219Z,101230.34
2022-11-10T02:59:00.709Z,101235.28
2022-11-10T03:01:46.990Z,101239.19
2022-11-10T03:04:33.348Z,101242.75
2022-11-10T03:07:19.514Z,101240.84
2022-11-10T03:10:07.158Z,101243.09
2022-11-10T03:12:58.523Z,101241.44
2022-11-10T03:15:47.142Z,101244.72
2022-11-10T03:18:33.708Z,101247.50
2022-11-10T03:21:19.885Z,101251.34
2022-11-10T03:24:06.378Z,101252.47
2022-11-10T03:26:52.797Z,101256.84
2022-11-10T03:29:38.814Z,101261.22
2022-11-10T03:32:25.012Z,101272.22
2022-11-10T03:35:11.463Z,101271.94
2022-11-10T03:37:57.760Z,101274.97
2022-11-10T03:41:17.071Z,101268.97
2022-11-10T03:43:51.226Z,101271.16
2022-11-10T03:46:38.930Z,101273.91
2022-11-10T03:49:27.173Z,101273.91
2022-11-10T03:52:13.483Z,101284.09
2022-11-10T03:55:03.265Z,101286.56
2022-11-10T03:57:50.174Z,101296.75
2022-11-10T04:00:36.648Z,101290.97
2022-11-10T04:03:24.071Z,101300.00
2022-11-10T04:06:30.419Z,101306.94
2022-11-10T04:09:16.880Z,101303.88
2022-11-10T04:12:24.892Z,101300.88
2022-11-10T04:15:31.366Z,101308.00
2022-11-10T04:18:27.031Z,101305.81
2022-11-10T04:21:13.387Z,101328.34
2022-11-10T04:23:59.716Z,101328.38
2022-11-10T04:26:47.607Z,101325.09
2022-11-10T04:29:34.020Z,101332.19
2022-11-10T04:32:20.319Z,101325.34
2022-11-10T04:35:07.043Z,101329.75
2022-11-10T04:37:53.500Z,101327.84
2022-11-10T04:40:39.818Z,101335.53
2022-11-10T04:43:26.606Z,101335.22
2022-11-10T04:46:34.976Z,101340.19
2022-11-10T04:49:21.311Z,101343.72
2022-11-10T04:52:07.593Z,101342.09
2022-11-10T04:54:53.837Z,101344.81
2022-11-10T04:57:40.952Z,101344.84
2022-11-10T05:00:27.674Z,101342.63
2022-11-10T05:03:14.557Z,101342.63
2022-11-10T05:06:00.826Z,101340.72
2022-11-10T05:08:47.901Z,101336.59
2022-11-10T05:11:34.064Z,101346.47
2022-11-10T05:14:20.348Z,101344.25
2022-11-10T05:17:06.889Z,101345.38
2022-11-10T05:19:53.249Z,101345.94
2022-11-10T05:22:39.520Z,101349.22
2022-11-10T05:25:26.008Z,101341.28
2022-11-10T05:28:13.632Z,101354.19
2022-11-10T05:31:00.029Z,101355.50
2022-11-10T05:33:46.657Z,101362.13
2022-11-10T05:36:32.885Z,101364.34
2022-11-10T05:39:19.472Z,101355.81
2022-11-10T05:42:05.657Z,101372.31
2022-11-10T05:44:52.096Z,101372.84
2022-11-10T05:47:38.699Z,101382.44
2022-11-10T05:50:25.667Z,101380.50
2022-11-10T05:53:11.923Z,101380.00
2022-11-10T05:55:58.265Z,101391.50
2022-11-10T05:58:44.360Z,101397.84
2022-11-10T06:01:30.550Z,101395.09
2022-11-10T06:04:16.865Z,101392.06
2022-11-10T06:07:03.413Z,101398.38
2022-11-10T06:09:49.677Z,101404.44
2022-11-10T06:12:36.670Z,101409.38
2022-11-10T06:15:23.944Z,101414.63
2022-11-10T06:18:10.799Z,101417.06
2022-11-10T06:20:57.077Z,101422.56
2022-11-10T06:23:43.617Z,101435.47
2022-11-10T06:26:30.029Z,101439.06
2022-11-10T06:29:16.814Z,101440.97
2022-11-10T06:32:03.312Z,101445.38
2022-11-10T06:34:49.696Z,101455.00
2022-11-10T06:37:36.136Z,101450.59
2022-11-10T06:40:22.729Z,101467.91
2022-11-10T06:43:09.183Z,101470.38
2022-11-10T06:45:55.539Z,101466.84
2022-11-10T06:48:41.809Z,101471.22
2022-11-10T06:51:28.340Z,101461.03
2022-11-10T06:54:14.789Z,101467.13
2022-11-10T06:57:01.200Z,101477.00
2022-11-10T06:59:50.479Z,101473.41
2022-11-10T07:02:37.013Z,101473.16
2022-11-10T07:05:23.456Z,101482.78
2022-11-10T07:08:16.351Z,101491.00
2022-11-10T07:11:02.962Z,101490.16
2022-11-10T07:13:49.528Z,101487.69
2022-11-10T07:16:35.941Z,101482.19
2022-11-10T07:19:22.249Z,101489.84
2022-11-10T07:22:11.250Z,101495.38
2022-11-10T07:24:58.043Z,101499.25
2022-11-10T07:27:44.483Z,101511.63
2022-11-10T07:30:32.995Z,101515.16
2022-11-10T07:33:20.011Z,101526.16
2022-11-10T07:36:07.467Z,101523.13
2022-11-10T07:38:53.983Z,101524.56
2022-11-10T07:41:41.634Z,101531.38
2022-11-10T07:44:27.931Z,101535.22
2022-11-10T07:47:14.244Z,101530.50
2022-11-10T07:50:00.761Z,101531.56
2022-11-10T07:52:47.071Z,101525.44
2022-11-10T07:55:34.096Z,101535.31
2022-11-10T07:58:20.862Z,101556.19
2022-11-10T08:01:07.407Z,101551.19
2022-11-10T08:03:54.034Z,101548.91
2022-11-10T08:06:40.476Z,101543.91
2022-11-10T08:09:27.013Z,101554.88
2022-11-10T08:12:13.126Z,101555.63
2022-11-10T08:14:59.297Z,101556.97
2022-11-10T08:17:45.948Z,101565.69
2022-11-10T08:20:32.971Z,101558.69
2022-11-10T08:23:19.751Z,101562.78
2022-11-10T08:26:06.465Z,101571.56
2022-11-10T08:28:52.658Z,101582.53
2022-11-10T08:31:39.167Z,101601.09
2022-11-10T08:34:25.541Z,101590.59
2022-11-10T08:37:11.853Z,101593.34
2022-11-10T08:39:58.057Z,101599.91
2022-11-10T08:42:44.319Z,101601.75
2022-11-10T08:45:30.610Z,101612.50
2022-11-10T08:48:20.098Z,101620.13
2022-11-10T08:51:06.936Z,101631.41
2022-11-10T08:53:53.331Z,101634.50
2022-11-10T08:56:42.302Z,101638.38
2022-11-10T08:59:29.199Z,101635.78
2022-11-10T09:02:15.650Z,101648.69
2022-11-10T09:05:02.008Z,101658.66
2022-11-10T09:07:49.833Z,101654.31
2022-11-10T09:10:39.714Z,101657.47
2022-11-10T09:13:29.971Z,101668.47
2022-11-10T09:16:17.200Z,101673.94
2022-11-10T09:19:03.525Z,101684.09
2022-11-10T09:21:50.065Z,101691.22
2022-11-10T09:24:36.874Z,101695.53
2022-11-10T09:27:23.346Z,101696.06
2022-11-10T09:30:14.568Z,101705.47
2022-11-10T09:33:04.030Z,101702.97
2022-11-10T09:35:51.129Z,101706.16
2022-11-10T09:38:39.671Z,101716.44
2022-11-10T09:41:30.127Z,101714.03
2022-11-10T09:44:23.540Z,101720.38
2022-11-10T09:47:19.085Z,101732.22
2022-11-10T09:50:27.085Z,101734.81
2022-11-10T09:53:19.858Z,101738.16
2022-11-10T09:56:07.517Z,101743.69
2022-11-10T09:58:57.081Z,101750.31
2022-11-10T10:01:51.759Z,101744.84
2022-11-10T10:04:44.794Z,101744.88
2022-11-10T10:07:39.533Z,101748.69
2022-11-10T10:10:28.436Z,101750.66
2022-11-10T10:13:20.343Z,101747.28
2022-11-10T10:16:12.323Z,101741.16
2022-11-10T10:19:25.870Z,101740.91
2022-11-10T10:22:36.604Z,101753.53
2022-11-10T10:25:24.890Z,101748.22
2022-11-10T10:28:23.635Z,101745.88
2022-11-10T10:31:20.836Z,101748.25
2022-11-10T10:34:16.172Z,101753.38
2022-11-10T10:37:02.959Z,101744.44
2022-11-10T10:39:52.026Z,101753.44
2022-11-10T10:42:38.236Z,101754.38
2022-11-10T10:45:29.266Z,101752.59
2022-11-10T10:48:28.372Z,101744.13
2022-11-10T10:51:44.455Z,101744.63
2022-11-10T10:54:33.672Z,101760.69
2022-11-10T10:57:24.254Z,101755.38
2022-11-10T11:00:29.571Z,101760.66
2022-11-10T11:03:47.197Z,101751.31
2022-11-10T11:06:35.177Z,101759.16
2022-11-10T11:09:39.885Z,101768.81
2022-11-10T11:12:30.112Z,101779.75
2022-11-10T11:15:21.924Z,101786.94
2022-11-10T11:18:15.176Z,101788.50
2022-11-10T11:24:12.049Z,101789.75
2022-11-10T11:27:04.680Z,101788.84
2022-11-10T11:30:13.728Z,101793.31
2022-11-10T11:33:31.779Z,101790.22
2022-11-10T11:36:20.901Z,101793.00
2022-11-10T11:39:44.433Z,101783.81
2022-11-10T11:43:01.343Z,101791.25
2022-11-10T11:45:58.648Z,101793.88
2022-11-10T11:48:44.532Z,101801.06
2022-11-10T11:52:06.120Z,101808.16
2022-11-10T11:55:26.513Z,101807.81
2022-11-10T11:58:50.984Z,101811.31
2022-11-10T12:01:46.247Z,101807.34
2022-11-10T12:04:46.127Z,101804.00
2022-11-10T12:07:50.290Z,101803.28
2022-11-10T12:10:43.837Z,101814.13
2022-11-10T12:13:37.756Z,101814.06
2022-11-10T12:16:51.708Z,101820.75
2022-11-10T12:19:53.738Z,101827.06
2022-11-10T12:22:54.255Z,101821.56
2022-11-10T12:25:52.327Z,101833.47
2022-11-10T12:28:44.552Z,101834.63
2022-11-10T12:31:36.020Z,101838.44
2022-11-10T12:34:44.229Z,101838.25
2022-11-10T12:37:40.465Z,101839.53
2022-11-10T12:40:56.126Z,101844.66
2022-11-10T12:43:58.248Z,101847.88
2022-11-10T12:46:51.806Z,101849.19
2022-11-10T12:49:55.583Z,101849.63
2022-11-10T12:52:51.983Z,101866.50
2022-11-10T12:56:02.215Z,101861.75
2022-11-10T12:58:48.382Z,101859.69
2022-11-10T13:01:34.898Z,101863.66
2022-11-10T13:04:21.238Z,101874.72
2022-11-10T13:07:13.092Z,101870.47
2022-11-10T13:10:26.544Z,101875.50
2022-11-10T13:13:17.420Z,101880.00
2022-11-10T13:16:05.626Z,101870.91
2022-11-10T13:18:54.118Z,101864.09
2022-11-10T13:22:05.432Z,101879.31
2022-11-10T13:24:52.094Z,101877.75
2022-11-10T13:27:38.642Z,101880.44
2022-11-10T13:30:45.083Z,101876.44
2022-11-10T13:33:36.272Z,101880.69
2022-11-10T13:36:45.440Z,101883.59
2022-11-10T13:39:33.613Z,101887.66
2022-11-10T13:42:25.043Z,101900.69
2022-11-10T13:45:42.059Z,101898.38
2022-11-10T13:48:41.932Z,101904.06
2022-11-10T13:52:06.597Z,101913.34
2022-11-10T13:55:18.901Z,101916.28
2022-11-10T13:58:10.671Z,101912.81
2022-11-10T14:01:18.605Z,101914.81
2022-11-10T14:04:05.206Z,101912.13
2022-11-10T14:06:55.186Z,101925.63
2022-11-10T14:09:45.757Z,101916.00
2022-11-10T14:12:46.400Z,101922.81
2022-11-10T14:15:41.910Z,101936.84
2022-11-10T14:18:45.583Z,101932.94
2022-11-10T14:21:43.551Z,101942.09
2022-11-10T14:24:39.714Z,101941.31
2022-11-10T14:27:28.958Z,101937.34
2022-11-10T14:30:24.944Z,101953.06
2022-11-10T14:33:13.928Z,101951.78
2022-11-10T14:36:10.196Z,101956.69
2022-11-10T14:38:58.291Z,101953.97
2022-11-10T14:41:48.877Z,101959.75
2022-11-10T14:44:35.709Z,101966.94
2022-11-10T14:47:33.529Z,101957.59
2022-11-10T14:50:21.997Z,101964.81
2022-11-10T14:53:15.248Z,101977.09
2022-11-10T14:56:04.500Z,101967.56
2022-11-10T14:58:51.790Z,101969.75
2022-11-10T15:01:58.038Z,101985.78
2022-11-10T15:04:46.395Z,101986.59
2022-11-10T15:07:32.710Z,101997.94
2022-11-10T15:10:21.868Z,102006.19
2022-11-10T15:13:14.071Z,102003.28
2022-11-10T15:16:22.040Z,102008.50
2022-11-10T15:19:46.409Z,102003.34
2022-11-10T15:22:36.656Z,102001.88
2022-11-10T15:25:26.232Z,102008.47
2022-11-10T15:28:12.449Z,102017.34
2022-11-10T15:31:02.497Z,102020.53
2022-11-10T15:33:52.330Z,102021.41
2022-11-10T15:36:42.159Z,102019.44
2022-11-10T15:39:30.429Z,102026.97
2022-11-10T15:42:21.599Z,102029.25
2022-11-10T15:45:08.582Z,102029.53
2022-11-10T15:47:55.897Z,102031.03
2022-11-10T15:50:45.737Z,102031.34
2022-11-10T15:53:38.800Z,102026.97
2022-11-10T15:56:25.612Z,102024.28
2022-11-10T15:59:12.208Z,102020.69
2022-11-10T16:01:59.474Z,102022.34
2022-11-10T16:04:46.899Z,102011.88
2022-11-10T16:07:33.515Z,102014.06
2022-11-10T16:10:19.915Z,102030.09
2022-11-10T16:13:07.813Z,102045.00
2022-11-10T16:15:55.180Z,102055.53
2022-11-10T16:18:43.918Z,102058.84
2022-11-10T16:21:30.444Z,102055.56
2022-11-10T16:24:18.101Z,102070.44
2022-11-10T16:27:11.444Z,102079.25
2022-11-10T16:29:57.855Z,102084.47
2022-11-10T16:32:43.965Z,102086.38
2022-11-10T16:35:30.756Z,102086.09
2022-11-10T16:38:26.655Z,102092.16
2022-11-10T16:41:14.844Z,102096.00
2022-11-10T16:44:01.401Z,102110.06
2022-11-10T16:46:54.222Z,102113.56
2022-11-10T16:49:44.379Z,102110.78
2022-11-10T16:52:31.076Z,102114.91
2022-11-10T16:55:17.472Z,102125.34
2022-11-10T16:58:04.864Z,102124.50
2022-11-10T17:00:51.437Z,102119.53
2022-11-10T17:03:43.283Z,102114.03
2022-11-10T17:06:31.710Z,102114.06
2022-11-10T17:09:23.580Z,102124.84
2022-11-10T17:12:15.065Z,102140.41
2022-11-10T17:15:02.131Z,102139.63
2022-11-10T17:17:53.248Z,102136.88
2022-11-10T17:20:42.822Z,102134.38
2022-11-10T17:23:29.958Z,102145.41
2022-11-10T17:26:20.654Z,102137.13
2022-11-10T17:29:07.523Z,102142.88
2022-11-10T17:31:56.668Z,102140.38
2022-11-10T17:34:43.280Z,102151.41
2022-11-10T17:37:29.945Z,102155.28
2022-11-10T17:40:19.150Z,102150.03
2022-11-10T17:43:05.634Z,102165.41
2022-11-10T17:45:52.483Z,102175.59
2022-11-10T17:48:38.932Z,102181.91
2022-11-10T17:51:25.134Z,102178.00
2022-11-10T17:54:14.640Z,102175.22
2022-11-10T17:57:01.024Z,102178.81
2022-11-10T17:59:47.577Z,102184.31
2022-11-10T18:02:34.261Z,102198.09
2022-11-10T18:05:21.245Z,102214.13
2022-11-10T18:08:07.593Z,102196.50
2022-11-10T18:10:55.188Z,102199.78
2022-11-10T18:13:42.762Z,102198.09
2022-11-10T18:16:29.305Z,102208.59
2022-11-10T18:19:15.789Z,102207.34
2022-11-10T18:22:02.240Z,102216.22
2022-11-10T18:24:49.223Z,102212.63
2022-11-10T18:27:36.962Z,102207.94
2022-11-10T18:30:23.232Z,102223.91
2022-11-10T18:33:12.133Z,102228.69
2022-11-10T18:36:00.444Z,102226.50
2022-11-10T18:38:47.869Z,102228.72
2022-11-10T18:41:49.749Z,102236.22
2022-11-10T18:44:37.196Z,102239.84
2022-11-10T18:47:23.576Z,102241.75
2022-11-10T18:50:10.482Z,102237.00
2022-11-10T18:52:57.249Z,102239.88
2022-11-10T18:55:54.150Z,102251.47
2022-11-10T18:58:41.461Z,102251.78
2022-11-10T19:01:28.196Z,102255.56
2022-11-10T19:04:15.122Z,102251.69
2022-11-10T19:07:02.017Z,102258.53
2022-11-10T19:09:48.696Z,102249.44
2022-11-10T19:12:35.687Z,102250.63
2022-11-10T19:15:25.956Z,102248.38
2022-11-10T19:18:12.793Z,102253.94
2022-11-10T19:21:07.933Z,102247.81
2022-11-10T19:23:58.681Z,102268.78
2022-11-10T19:26:49.662Z,102278.09
2022-11-10T19:29:35.907Z,102279.88
2022-11-10T19:32:25.009Z,102293.41
2022-11-10T19:35:13.484Z,102290.94
2022-11-10T19:38:00.034Z,102297.06
2022-11-10T19:40:46.583Z,102304.41
2022-11-10T19:43:32.945Z,102296.47
2022-11-10T19:46:25.093Z,102306.84
2022-11-10T19:49:11.326Z,102296.63
2022-11-10T19:51:59.089Z,102304.41
2022-11-10T19:54:45.667Z,102309.91
2022-11-10T19:57:34.802Z,102304.22
2022-11-10T20:00:23.568Z,102302.50
2022-11-10T20:03:12.579Z,102306.28
2022-11-10T20:06:04.822Z,102313.56
2022-11-10T20:08:51.442Z,102315.34
2022-11-10T20:11:38.011Z,102318.66
2022-11-10T20:14:24.260Z,102326.25
2022-11-10T20:17:10.702Z,102321.59
2022-11-10T20:19:57.277Z,102346.31
2022-11-10T20:22:43.765Z,102350.53
2022-11-10T20:25:30.389Z,102355.50
2022-11-10T20:28:16.569Z,102360.50
2022-11-10T20:31:09.003Z,102372.44
2022-11-10T20:33:56.665Z,102370.69
2022-11-10T20:36:43.163Z,102373.13
2022-11-10T20:39:29.818Z,102374.97
2022-11-10T20:42:16.257Z,102388.75
2022-11-10T20:45:02.977Z,102389.66
2022-11-10T20:47:49.426Z,102384.69
2022-11-10T20:50:39.481Z,102384.69
2022-11-10T20:53:26.562Z,102389.66
2022-11-10T20:56:14.080Z,102383.28
2022-11-10T20:59:00.694Z,102379.75
2022-11-10T21:01:47.291Z,102383.25
2022-11-10T21:04:37.854Z,102389.91
2022-11-10T21:07:28.075Z,102382.94
2022-11-10T21:10:16.077Z,102377.44
2022-11-10T21:13:05.904Z,102379.09
2022-11-10T21:15:55.542Z,102376.59
2022-11-10T21:18:44.068Z,102377.06
2022-11-10T21:21:35.064Z,102366.94
2022-11-10T21:24:23.939Z,102374.31
2022-11-10T21:27:12.220Z,102367.94
2022-11-10T21:29:58.953Z,102362.69
2022-11-10T21:32:45.324Z,102365.94
2022-11-10T21:35:36.832Z,102366.25
